sensor_id;sensor_type;location;lat;lon;timestamp;temperature;humidity
15115;DHT22;7658;51.456;7.622;2022-07-30T00:00:05;18.30;99.90
15115;DHT22;7658;51.456;7.622;2022-07-30T00:02:32;18.30;99.90
15115;DHT22;7658;51.456;7.622;2022-07-30T00:04:58;18.30;99.90
15115;DHT22;7658;51.456;7.622;2022-07-30T00:07:24;18.20;99.90
15115;DHT22;7658;51.456;7.622;2022-07-30T00:09:49;18.20;99.90
15115;DHT22;7658;51.456;7.622;2022-07-30T00:12:15;18.10;99.90
15115;DHT22;7658;51.456;7.622;2022-07-30T00:14:41;18.10;99.90
15115;DHT22;7658;51.456;7.622;2022-07-30T00:17:07;18.10;99.90
15115;DHT22;7658;51.456;7.622;2022-07-30T00:19:33;18.00;99.90
15115;DHT22;7658;51.456;7.622;2022-07-30T00:21:59;17.90;99.90
15115;DHT22;7658;51.456;7.622;2022-07-30T00:24:24;17.90;99.90
15115;DHT22;7658;51.456;7.622;2022-07-30T00:26:50;17.90;99.90
15115;DHT22;7658;51.456;7.622;2022-07-30T00:29:16;17.80;99.90
15115;DHT22;7658;51.456;7.622;2022-07-30T00:31:42;17.70;99.90
15115;DHT22;7658;51.456;7.622;2022-07-30T00:34:08;17.60;99.90
15115;DHT22;7658;51.456;7.622;2022-07-30T00:36:34;17.60;99.90
15115;DHT22;7658;51.456;7.622;2022-07-30T00:39:00;17.60;99.90
15115;DHT22;7658;51.456;7.622;2022-07-30T00:41:26;17.60;99.90
15115;DHT22;7658;51.456;7.622;2022-07-30T00:43:52;17.50;99.90
15115;DHT22;7658;51.456;7.622;2022-07-30T00:46:18;17.50;99.90
15115;DHT22;7658;51.456;7.622;2022-07-30T00:48:44;17.50;99.90
15115;DHT22;7658;51.456;7.622;2022-07-30T00:51:10;17.50;99.90
15115;DHT22;7658;51.456;7.622;2022-07-30T00:53:36;17.50;99.90
15115;DHT22;7658;51.456;7.622;2022-07-30T00:56:03;17.50;99.90
15115;DHT22;7658;51.456;7.622;2022-07-30T00:58:29;17.40;99.90
15115;DHT22;7658;51.456;7.622;2022-07-30T01:00:55;17.30;99.90
15115;DHT22;7658;51.456;7.622;2022-07-30T01:03:21;17.30;99.90
15115;DHT22;7658;51.456;7.622;2022-07-30T01:05:46;17.30;99.90
15115;DHT22;7658;51.456;7.622;2022-07-30T01:08:12;17.20;99.90
15115;DHT22;7658;51.456;7.622;2022-07-30T01:10:38;17.20;99.90
15115;DHT22;7658;51.456;7.622;2022-07-30T01:13:04;17.10;99.90
15115;DHT22;7658;51.456;7.622;2022-07-30T01:15:31;16.90;99.90
15115;DHT22;7658;51.456;7.622;2022-07-30T01:18:00;16.80;99.90
15115;DHT22;7658;51.456;7.622;2022-07-30T01:21:00;16.70;99.90
15115;DHT22;7658;51.456;7.622;2022-07-30T01:23:42;16.70;99.90
15115;DHT22;7658;51.456;7.622;2022-07-30T01:26:17;16.60;99.90
15115;DHT22;7658;51.456;7.622;2022-07-30T01:28:49;16.60;99.90
15115;DHT22;7658;51.456;7.622;2022-07-30T01:31:16;16.60;99.90
15115;DHT22;7658;51.456;7.622;2022-07-30T01:33:45;16.60;99.90
15115;DHT22;7658;51.456;7.622;2022-07-30T01:36:14;16.60;99.90
15115;DHT22;7658;51.456;7.622;2022-07-30T01:38:43;16.60;99.90
15115;DHT22;7658;51.456;7.622;2022-07-30T01:41:10;16.60;99.90
15115;DHT22;7658;51.456;7.622;2022-07-30T01:43:37;16.50;99.90
15115;DHT22;7658;51.456;7.622;2022-07-30T01:46:05;16.50;99.90
15115;DHT22;7658;51.456;7.622;2022-07-30T01:48:34;16.50;99.90
15115;DHT22;7658;51.456;7.622;2022-07-30T01:51:04;16.40;99.90
15115;DHT22;7658;51.456;7.622;2022-07-30T01:53:32;16.30;99.90
15115;DHT22;7658;51.456;7.622;2022-07-30T01:56:01;16.20;99.90
15115;DHT22;7658;51.456;7.622;2022-07-30T01:58:31;16.10;99.90
15115;DHT22;7658;51.456;7.622;2022-07-30T02:00:58;16.10;99.90
15115;DHT22;7658;51.456;7.622;2022-07-30T02:03:25;16.10;99.90
15115;DHT22;7658;51.456;7.622;2022-07-30T02:06:04;16.10;99.90
15115;DHT22;7658;51.456;7.622;2022-07-30T02:08:37;16.10;99.90
15115;DHT22;7658;51.456;7.622;2022-07-30T02:11:09;16.10;99.90
15115;DHT22;7658;51.456;7.622;2022-07-30T02:13:45;16.10;99.90
15115;DHT22;7658;51.456;7.622;2022-07-30T02:16:26;16.10;99.90
15115;DHT22;7658;51.456;7.622;2022-07-30T02:18:56;16.10;99.90
15115;DHT22;7658;51.456;7.622;2022-07-30T02:21:34;16.10;99.90
15115;DHT22;7658;51.456;7.622;2022-07-30T02:24:04;16.00;99.90
15115;DHT22;7658;51.456;7.622;2022-07-30T02:26:33;15.90;99.90
15115;DHT22;7658;51.456;7.622;2022-07-30T02:29:01;15.80;99.90
15115;DHT22;7658;51.456;7.622;2022-07-30T02:31:28;15.80;99.90
15115;DHT22;7658;51.456;7.622;2022-07-30T02:34:00;15.70;99.90
15115;DHT22;7658;51.456;7.622;2022-07-30T02:36:28;15.70;99.90
15115;DHT22;7658;51.456;7.622;2022-07-30T02:38:56;15.60;99.90
15115;DHT22;7658;51.456;7.622;2022-07-30T02:41:24;15.50;99.90
15115;DHT22;7658;51.456;7.622;2022-07-30T02:43:52;15.50;99.90
15115;DHT22;7658;51.456;7.622;2022-07-30T02:46:18;15.50;99.90
15115;DHT22;7658;51.456;7.622;2022-07-30T02:48:46;15.50;99.90
15115;DHT22;7658;51.456;7.622;2022-07-30T02:51:15;15.40;99.90
15115;DHT22;7658;51.456;7.622;2022-07-30T02:53:44;15.40;99.90
15115;DHT22;7658;51.456;7.622;2022-07-30T02:56:11;15.30;99.90
15115;DHT22;7658;51.456;7.622;2022-07-30T02:58:38;15.30;99.90
15115;DHT22;7658;51.456;7.622;2022-07-30T03:01:05;15.30;99.90
15115;DHT22;7658;51.456;7.622;2022-07-30T03:03:31;15.30;99.90
15115;DHT22;7658;51.456;7.622;2022-07-30T03:05:58;15.30;99.90
15115;DHT22;7658;51.456;7.622;2022-07-30T03:08:27;15.20;99.90
15115;DHT22;7658;51.456;7.622;2022-07-30T03:10:55;15.10;99.90
15115;DHT22;7658;51.456;7.622;2022-07-30T03:13:22;15.20;99.90
15115;DHT22;7658;51.456;7.622;2022-07-30T03:15:50;15.10;99.90
15115;DHT22;7658;51.456;7.622;2022-07-30T03:18:18;15.10;99.90
15115;DHT22;7658;51.456;7.622;2022-07-30T03:20:48;15.10;99.90
15115;DHT22;7658;51.456;7.622;2022-07-30T03:23:17;15.10;99.90
15115;DHT22;7658;51.456;7.622;2022-07-30T03:25:53;15.10;99.90
15115;DHT22;7658;51.456;7.622;2022-07-30T03:28:20;15.10;99.90
15115;DHT22;7658;51.456;7.622;2022-07-30T03:30:46;15.00;99.90
15115;DHT22;7658;51.456;7.622;2022-07-30T03:33:12;15.00;99.90
15115;DHT22;7658;51.456;7.622;2022-07-30T03:35:41;15.00;99.90
15115;DHT22;7658;51.456;7.622;2022-07-30T03:38:11;15.00;99.90
15115;DHT22;7658;51.456;7.622;2022-07-30T03:40:40;14.90;99.90
15115;DHT22;7658;51.456;7.622;2022-07-30T03:43:08;14.80;99.90
15115;DHT22;7658;51.456;7.622;2022-07-30T03:45:39;14.80;99.90
15115;DHT22;7658;51.456;7.622;2022-07-30T03:48:08;14.80;99.90
15115;DHT22;7658;51.456;7.622;2022-07-30T03:50:38;14.80;99.90
15115;DHT22;7658;51.456;7.622;2022-07-30T03:53:06;14.80;99.90
15115;DHT22;7658;51.456;7.622;2022-07-30T03:55:32;14.80;99.90
15115;DHT22;7658;51.456;7.622;2022-07-30T03:58:01;14.80;99.90
15115;DHT22;7658;51.456;7.622;2022-07-30T04:00:28;14.60;99.90
15115;DHT22;7658;51.456;7.622;2022-07-30T04:02:54;14.60;99.90
15115;DHT22;7658;51.456;7.622;2022-07-30T04:05:20;14.60;99.90
15115;DHT22;7658;51.456;7.622;2022-07-30T04:07:46;14.50;99.90
15115;DHT22;7658;51.456;7.622;2022-07-30T04:10:13;14.50;99.90
15115;DHT22;7658;51.456;7.622;2022-07-30T04:12:39;14.60;99.90
15115;DHT22;7658;51.456;7.622;2022-07-30T04:15:05;14.60;99.90
15115;DHT22;7658;51.456;7.622;2022-07-30T04:17:35;14.60;99.90
15115;DHT22;7658;51.456;7.622;2022-07-30T04:20:20;14.50;99.90
15115;DHT22;7658;51.456;7.622;2022-07-30T04:22:47;14.50;99.90
15115;DHT22;7658;51.456;7.622;2022-07-30T04:25:14;14.60;99.90
15115;DHT22;7658;51.456;7.622;2022-07-30T04:27:40;14.60;99.90
15115;DHT22;7658;51.456;7.622;2022-07-30T04:30:06;14.70;99.90
15115;DHT22;7658;51.456;7.622;2022-07-30T04:32:32;14.70;99.90
15115;DHT22;7658;51.456;7.622;2022-07-30T04:34:58;14.60;99.90
15115;DHT22;7658;51.456;7.622;2022-07-30T04:37:25;14.70;99.90
15115;DHT22;7658;51.456;7.622;2022-07-30T04:39:52;14.60;99.90
15115;DHT22;7658;51.456;7.622;2022-07-30T04:42:23;14.60;99.90
15115;DHT22;7658;51.456;7.622;2022-07-30T04:44:49;14.60;99.90
15115;DHT22;7658;51.456;7.622;2022-07-30T04:47:16;14.70;99.90
15115;DHT22;7658;51.456;7.622;2022-07-30T04:49:43;14.60;99.90
15115;DHT22;7658;51.456;7.622;2022-07-30T04:52:10;14.70;99.90
15115;DHT22;7658;51.456;7.622;2022-07-30T04:54:41;14.70;99.90
15115;DHT22;7658;51.456;7.622;2022-07-30T04:57:12;14.70;99.90
15115;DHT22;7658;51.456;7.622;2022-07-30T04:59:38;14.70;99.90
15115;DHT22;7658;51.456;7.622;2022-07-30T05:02:06;14.80;99.90
15115;DHT22;7658;51.456;7.622;2022-07-30T05:04:33;14.90;99.90
15115;DHT22;7658;51.456;7.622;2022-07-30T05:07:01;14.90;99.90
15115;DHT22;7658;51.456;7.622;2022-07-30T05:09:30;14.90;99.90
15115;DHT22;7658;51.456;7.622;2022-07-30T05:11:56;15.00;99.90
15115;DHT22;7658;51.456;7.622;2022-07-30T05:14:24;15.10;99.90
15115;DHT22;7658;51.456;7.622;2022-07-30T05:16:51;15.20;99.90
15115;DHT22;7658;51.456;7.622;2022-07-30T05:19:18;15.30;99.90
15115;DHT22;7658;51.456;7.622;2022-07-30T05:21:43;15.30;99.90
15115;DHT22;7658;51.456;7.622;2022-07-30T05:24:09;15.40;99.90
15115;DHT22;7658;51.456;7.622;2022-07-30T05:26:35;15.40;99.90
15115;DHT22;7658;51.456;7.622;2022-07-30T05:29:01;15.40;99.90
15115;DHT22;7658;51.456;7.622;2022-07-30T05:31:27;15.40;99.90
15115;DHT22;7658;51.456;7.622;2022-07-30T05:33:53;15.50;99.90
15115;DHT22;7658;51.456;7.622;2022-07-30T05:36:19;15.60;99.90
15115;DHT22;7658;51.456;7.622;2022-07-30T05:38:45;15.70;99.90
15115;DHT22;7658;51.456;7.622;2022-07-30T05:41:11;15.70;99.90
15115;DHT22;7658;51.456;7.622;2022-07-30T05:43:36;15.80;99.90
15115;DHT22;7658;51.456;7.622;2022-07-30T05:46:02;15.90;99.90
15115;DHT22;7658;51.456;7.622;2022-07-30T05:48:28;16.00;99.90
15115;DHT22;7658;51.456;7.622;2022-07-30T05:50:56;16.10;99.90
15115;DHT22;7658;51.456;7.622;2022-07-30T05:53:22;16.10;99.90
15115;DHT22;7658;51.456;7.622;2022-07-30T05:55:48;16.20;99.90
15115;DHT22;7658;51.456;7.622;2022-07-30T05:58:14;16.20;99.90
15115;DHT22;7658;51.456;7.622;2022-07-30T06:00:39;16.30;99.90
15115;DHT22;7658;51.456;7.622;2022-07-30T06:03:05;16.40;99.90
15115;DHT22;7658;51.456;7.622;2022-07-30T06:05:31;16.50;99.90
15115;DHT22;7658;51.456;7.622;2022-07-30T06:07:57;16.60;99.90
15115;DHT22;7658;51.456;7.622;2022-07-30T06:10:23;16.60;99.90
15115;DHT22;7658;51.456;7.622;2022-07-30T06:12:49;16.60;99.90
15115;DHT22;7658;51.456;7.622;2022-07-30T06:15:14;16.70;99.90
15115;DHT22;7658;51.456;7.622;2022-07-30T06:17:42;16.70;99.90
15115;DHT22;7658;51.456;7.622;2022-07-30T06:20:10;16.80;99.90
15115;DHT22;7658;51.456;7.622;2022-07-30T06:22:36;16.80;99.90
15115;DHT22;7658;51.456;7.622;2022-07-30T06:25:02;16.90;99.90
15115;DHT22;7658;51.456;7.622;2022-07-30T06:27:27;16.90;99.90
15115;DHT22;7658;51.456;7.622;2022-07-30T06:29:53;17.10;99.90
15115;DHT22;7658;51.456;7.622;2022-07-30T06:32:19;17.10;99.90
15115;DHT22;7658;51.456;7.622;2022-07-30T06:34:45;17.20;99.90
15115;DHT22;7658;51.456;7.622;2022-07-30T06:37:11;17.30;99.90
15115;DHT22;7658;51.456;7.622;2022-07-30T06:39:36;17.40;99.90
15115;DHT22;7658;51.456;7.622;2022-07-30T06:42:02;17.50;99.90
15115;DHT22;7658;51.456;7.622;2022-07-30T06:44:28;17.50;99.90
15115;DHT22;7658;51.456;7.622;2022-07-30T06:46:54;17.60;99.90
15115;DHT22;7658;51.456;7.622;2022-07-30T06:49:20;17.70;99.90
15115;DHT22;7658;51.456;7.622;2022-07-30T06:51:45;17.80;99.90
15115;DHT22;7658;51.456;7.622;2022-07-30T06:54:11;17.90;99.90
15115;DHT22;7658;51.456;7.622;2022-07-30T06:56:37;18.00;99.90
15115;DHT22;7658;51.456;7.622;2022-07-30T06:59:03;18.10;99.90
15115;DHT22;7658;51.456;7.622;2022-07-30T07:01:29;18.20;99.90
15115;DHT22;7658;51.456;7.622;2022-07-30T07:03:54;18.30;99.90
15115;DHT22;7658;51.456;7.622;2022-07-30T07:06:20;18.40;99.90
15115;DHT22;7658;51.456;7.622;2022-07-30T07:08:46;18.50;99.90
15115;DHT22;7658;51.456;7.622;2022-07-30T07:11:11;18.70;99.90
15115;DHT22;7658;51.456;7.622;2022-07-30T07:13:37;18.70;99.90
15115;DHT22;7658;51.456;7.622;2022-07-30T07:16:03;18.80;99.90
15115;DHT22;7658;51.456;7.622;2022-07-30T07:18:29;18.90;99.90
15115;DHT22;7658;51.456;7.622;2022-07-30T07:20:55;18.90;99.90
15115;DHT22;7658;51.456;7.622;2022-07-30T07:23:21;19.00;99.90
15115;DHT22;7658;51.456;7.622;2022-07-30T07:25:46;19.10;99.90
15115;DHT22;7658;51.456;7.622;2022-07-30T07:28:12;19.30;99.90
15115;DHT22;7658;51.456;7.622;2022-07-30T07:30:39;19.40;99.90
15115;DHT22;7658;51.456;7.622;2022-07-30T07:33:05;19.40;99.90
15115;DHT22;7658;51.456;7.622;2022-07-30T07:35:32;19.50;99.90
15115;DHT22;7658;51.456;7.622;2022-07-30T07:37:58;19.60;99.90
15115;DHT22;7658;51.456;7.622;2022-07-30T07:40:24;19.70;99.90
15115;DHT22;7658;51.456;7.622;2022-07-30T07:42:49;19.70;99.90
15115;DHT22;7658;51.456;7.622;2022-07-30T07:45:15;19.70;99.90
15115;DHT22;7658;51.456;7.622;2022-07-30T07:47:45;19.70;99.90
15115;DHT22;7658;51.456;7.622;2022-07-30T07:50:14;19.70;99.90
15115;DHT22;7658;51.456;7.622;2022-07-30T07:52:40;19.80;99.90
15115;DHT22;7658;51.456;7.622;2022-07-30T07:55:06;19.80;99.90
15115;DHT22;7658;51.456;7.622;2022-07-30T07:57:40;19.80;99.90
15115;DHT22;7658;51.456;7.622;2022-07-30T08:00:07;19.80;99.90
15115;DHT22;7658;51.456;7.622;2022-07-30T08:02:34;19.80;99.90
15115;DHT22;7658;51.456;7.622;2022-07-30T08:05:00;19.80;99.90
15115;DHT22;7658;51.456;7.622;2022-07-30T08:07:26;19.90;99.90
15115;DHT22;7658;51.456;7.622;2022-07-30T08:09:52;20.00;99.90
15115;DHT22;7658;51.456;7.622;2022-07-30T08:12:17;20.10;99.90
15115;DHT22;7658;51.456;7.622;2022-07-30T08:14:43;20.20;99.90
15115;DHT22;7658;51.456;7.622;2022-07-30T08:17:09;20.20;99.90
15115;DHT22;7658;51.456;7.622;2022-07-30T08:19:34;20.20;99.90
15115;DHT22;7658;51.456;7.622;2022-07-30T08:22:00;20.30;99.90
15115;DHT22;7658;51.456;7.622;2022-07-30T08:24:26;20.30;99.90
15115;DHT22;7658;51.456;7.622;2022-07-30T08:26:52;20.40;99.90
15115;DHT22;7658;51.456;7.622;2022-07-30T08:29:17;20.40;99.90
15115;DHT22;7658;51.456;7.622;2022-07-30T08:31:44;20.40;99.90
15115;DHT22;7658;51.456;7.622;2022-07-30T08:34:09;20.40;99.90
15115;DHT22;7658;51.456;7.622;2022-07-30T08:36:35;20.30;99.90
15115;DHT22;7658;51.456;7.622;2022-07-30T08:39:01;20.30;99.90
15115;DHT22;7658;51.456;7.622;2022-07-30T08:41:27;20.30;99.90
15115;DHT22;7658;51.456;7.622;2022-07-30T08:43:53;20.50;99.90
15115;DHT22;7658;51.456;7.622;2022-07-30T08:46:22;20.50;99.90
15115;DHT22;7658;51.456;7.622;2022-07-30T08:48:51;20.50;99.90
15115;DHT22;7658;51.456;7.622;2022-07-30T08:51:18;20.40;99.90
15115;DHT22;7658;51.456;7.622;2022-07-30T08:53:44;20.30;99.90
15115;DHT22;7658;51.456;7.622;2022-07-30T08:56:11;20.30;99.90
15115;DHT22;7658;51.456;7.622;2022-07-30T08:58:37;20.30;99.90
15115;DHT22;7658;51.456;7.622;2022-07-30T09:01:04;20.40;99.90
15115;DHT22;7658;51.456;7.622;2022-07-30T09:03:30;20.60;99.90
15115;DHT22;7658;51.456;7.622;2022-07-30T09:05:56;20.70;99.90
15115;DHT22;7658;51.456;7.622;2022-07-30T09:08:22;20.80;99.90
15115;DHT22;7658;51.456;7.622;2022-07-30T09:10:48;21.00;99.90
15115;DHT22;7658;51.456;7.622;2022-07-30T09:15:49;21.20;99.90
15115;DHT22;7658;51.456;7.622;2022-07-30T09:18:35;21.20;99.90
15115;DHT22;7658;51.456;7.622;2022-07-30T09:21:22;21.20;99.90
15115;DHT22;7658;51.456;7.622;2022-07-30T09:24:07;21.20;99.90
15115;DHT22;7658;51.456;7.622;2022-07-30T09:29:22;21.60;99.90
15115;DHT22;7658;51.456;7.622;2022-07-30T09:32:07;21.60;99.90
15115;DHT22;7658;51.456;7.622;2022-07-30T09:34:38;21.60;99.90
15115;DHT22;7658;51.456;7.622;2022-07-30T09:39:37;21.90;99.90
15115;DHT22;7658;51.456;7.622;2022-07-30T09:44:44;22.10;99.90
15115;DHT22;7658;51.456;7.622;2022-07-30T09:47:32;22.20;99.90
15115;DHT22;7658;51.456;7.622;2022-07-30T09:50:08;22.30;99.90
15115;DHT22;7658;51.456;7.622;2022-07-30T09:52:36;22.20;99.90
15115;DHT22;7658;51.456;7.622;2022-07-30T09:55:02;22.30;99.90
15115;DHT22;7658;51.456;7.622;2022-07-30T09:57:28;22.50;99.90
15115;DHT22;7658;51.456;7.622;2022-07-30T10:00:15;22.60;99.90
15115;DHT22;7658;51.456;7.622;2022-07-30T10:02:43;22.80;99.90
15115;DHT22;7658;51.456;7.622;2022-07-30T10:05:11;22.80;99.90
15115;DHT22;7658;51.456;7.622;2022-07-30T10:07:37;22.70;99.90
15115;DHT22;7658;51.456;7.622;2022-07-30T10:10:03;22.70;99.90
15115;DHT22;7658;51.456;7.622;2022-07-30T10:12:31;22.70;99.90
15115;DHT22;7658;51.456;7.622;2022-07-30T10:15:00;22.60;99.90
15115;DHT22;7658;51.456;7.622;2022-07-30T10:17:26;22.70;99.90
15115;DHT22;7658;51.456;7.622;2022-07-30T10:19:55;22.60;99.90
15115;DHT22;7658;51.456;7.622;2022-07-30T10:22:20;22.60;99.90
15115;DHT22;7658;51.456;7.622;2022-07-30T10:24:46;22.60;99.90
15115;DHT22;7658;51.456;7.622;2022-07-30T10:27:13;22.80;99.90
15115;DHT22;7658;51.456;7.622;2022-07-30T10:29:39;22.90;99.90
15115;DHT22;7658;51.456;7.622;2022-07-30T10:32:05;23.00;99.90
15115;DHT22;7658;51.456;7.622;2022-07-30T10:34:31;23.10;99.90
15115;DHT22;7658;51.456;7.622;2022-07-30T10:37:02;23.30;99.90
15115;DHT22;7658;51.456;7.622;2022-07-30T10:39:36;23.20;99.90
15115;DHT22;7658;51.456;7.622;2022-07-30T10:44:49;23.40;99.90
15115;DHT22;7658;51.456;7.622;2022-07-30T10:47:20;23.40;99.90
15115;DHT22;7658;51.456;7.622;2022-07-30T11:00:35;23.40;99.90
15115;DHT22;7658;51.456;7.622;2022-07-30T11:03:26;23.70;99.90
15115;DHT22;7658;51.456;7.622;2022-07-30T11:08:44;23.90;99.90
15115;DHT22;7658;51.456;7.622;2022-07-30T11:13:59;24.30;99.90
15115;DHT22;7658;51.456;7.622;2022-07-30T11:19:11;24.60;99.90
15115;DHT22;7658;51.456;7.622;2022-07-30T11:21:41;24.60;99.90
15115;DHT22;7658;51.456;7.622;2022-07-30T11:24:45;24.80;99.90
15115;DHT22;7658;51.456;7.622;2022-07-30T11:30:04;24.80;99.90
15115;DHT22;7658;51.456;7.622;2022-07-30T11:32:33;24.80;99.90
15115;DHT22;7658;51.456;7.622;2022-07-30T11:35:24;24.90;99.90
15115;DHT22;7658;51.456;7.622;2022-07-30T11:38:11;24.80;99.90
15115;DHT22;7658;51.456;7.622;2022-07-30T11:43:17;25.40;99.90
15115;DHT22;7658;51.456;7.622;2022-07-30T11:48:33;25.40;99.90
15115;DHT22;7658;51.456;7.622;2022-07-30T11:50:59;25.50;99.90
15115;DHT22;7658;51.456;7.622;2022-07-30T11:53:25;25.50;99.90
15115;DHT22;7658;51.456;7.622;2022-07-30T11:55:55;25.50;99.90
15115;DHT22;7658;51.456;7.622;2022-07-30T11:58:28;25.40;99.90
15115;DHT22;7658;51.456;7.622;2022-07-30T12:00:57;25.20;99.90
15115;DHT22;7658;51.456;7.622;2022-07-30T12:03:26;24.80;99.90
15115;DHT22;7658;51.456;7.622;2022-07-30T12:05:53;24.50;99.90
15115;DHT22;7658;51.456;7.622;2022-07-30T12:08:20;24.30;99.90
15115;DHT22;7658;51.456;7.622;2022-07-30T12:10:58;24.10;99.90
15115;DHT22;7658;51.456;7.622;2022-07-30T12:13:24;23.80;99.90
15115;DHT22;7658;51.456;7.622;2022-07-30T12:15:50;23.90;99.90
15115;DHT22;7658;51.456;7.622;2022-07-30T12:18:29;24.30;99.90
15115;DHT22;7658;51.456;7.622;2022-07-30T12:21:03;24.60;99.90
15115;DHT22;7658;51.456;7.622;2022-07-30T12:23:30;25.00;99.90
15115;DHT22;7658;51.456;7.622;2022-07-30T12:25:57;25.00;99.90
15115;DHT22;7658;51.456;7.622;2022-07-30T12:28:27;25.00;99.90
15115;DHT22;7658;51.456;7.622;2022-07-30T12:30:54;25.10;99.90
15115;DHT22;7658;51.456;7.622;2022-07-30T12:33:21;25.20;99.90
15115;DHT22;7658;51.456;7.622;2022-07-30T12:35:52;25.30;99.90
15115;DHT22;7658;51.456;7.622;2022-07-30T12:38:19;25.20;99.90
15115;DHT22;7658;51.456;7.622;2022-07-30T12:40:57;24.80;99.90
15115;DHT22;7658;51.456;7.622;2022-07-30T12:43:51;24.40;99.90
15115;DHT22;7658;51.456;7.622;2022-07-30T12:46:25;24.70;99.90
15115;DHT22;7658;51.456;7.622;2022-07-30T12:51:21;25.40;99.90
15115;DHT22;7658;51.456;7.622;2022-07-30T12:53:48;25.40;99.90
15115;DHT22;7658;51.456;7.622;2022-07-30T12:56:17;25.70;99.90
15115;DHT22;7658;51.456;7.622;2022-07-30T12:58:44;26.00;99.90
15115;DHT22;7658;51.456;7.622;2022-07-30T13:01:10;26.40;99.90
15115;DHT22;7658;51.456;7.622;2022-07-30T13:03:37;26.50;99.90
15115;DHT22;7658;51.456;7.622;2022-07-30T13:06:16;26.40;99.90
15115;DHT22;7658;51.456;7.622;2022-07-30T13:11:18;26.80;99.90
15115;DHT22;7658;51.456;7.622;2022-07-30T13:13:44;26.40;99.90
15115;DHT22;7658;51.456;7.622;2022-07-30T13:16:11;26.40;99.90
15115;DHT22;7658;51.456;7.622;2022-07-30T13:18:37;26.60;99.90
15115;DHT22;7658;51.456;7.622;2022-07-30T13:21:04;27.20;99.90
15115;DHT22;7658;51.456;7.622;2022-07-30T13:23:32;27.60;99.90
15115;DHT22;7658;51.456;7.622;2022-07-30T13:25:58;27.80;99.90
15115;DHT22;7658;51.456;7.622;2022-07-30T13:28:23;27.70;99.90
15115;DHT22;7658;51.456;7.622;2022-07-30T13:30:49;27.30;99.90
15115;DHT22;7658;51.456;7.622;2022-07-30T13:33:16;27.30;99.90
15115;DHT22;7658;51.456;7.622;2022-07-30T13:35:42;27.20;99.90
15115;DHT22;7658;51.456;7.622;2022-07-30T13:38:08;27.60;99.90
15115;DHT22;7658;51.456;7.622;2022-07-30T13:40:36;27.50;99.90
15115;DHT22;7658;51.456;7.622;2022-07-30T13:43:02;27.10;99.90
15115;DHT22;7658;51.456;7.622;2022-07-30T13:45:28;27.20;99.90
15115;DHT22;7658;51.456;7.622;2022-07-30T13:47:54;27.30;99.90
15115;DHT22;7658;51.456;7.622;2022-07-30T13:50:20;27.40;99.90
15115;DHT22;7658;51.456;7.622;2022-07-30T13:52:46;27.50;99.90
15115;DHT22;7658;51.456;7.622;2022-07-30T13:55:12;27.70;99.90
15115;DHT22;7658;51.456;7.622;2022-07-30T13:57:38;27.50;99.90
15115;DHT22;7658;51.456;7.622;2022-07-30T14:00:06;27.30;99.90
15115;DHT22;7658;51.456;7.622;2022-07-30T14:02:32;27.60;99.90
15115;DHT22;7658;51.456;7.622;2022-07-30T14:04:59;27.50;99.90
15115;DHT22;7658;51.456;7.622;2022-07-30T14:07:31;27.80;99.90
15115;DHT22;7658;51.456;7.622;2022-07-30T14:09:57;27.50;99.90
15115;DHT22;7658;51.456;7.622;2022-07-30T14:12:23;27.10;99.90
15115;DHT22;7658;51.456;7.622;2022-07-30T14:14:49;26.80;99.90
15115;DHT22;7658;51.456;7.622;2022-07-30T14:17:14;27.10;99.90
15115;DHT22;7658;51.456;7.622;2022-07-30T14:19:40;27.20;99.90
15115;DHT22;7658;51.456;7.622;2022-07-30T14:22:06;27.20;99.90
15115;DHT22;7658;51.456;7.622;2022-07-30T14:24:31;27.30;99.90
15115;DHT22;7658;51.456;7.622;2022-07-30T14:26:57;27.50;99.90
15115;DHT22;7658;51.456;7.622;2022-07-30T14:29:24;27.30;99.90
15115;DHT22;7658;51.456;7.622;2022-07-30T14:31:50;27.10;99.90
15115;DHT22;7658;51.456;7.622;2022-07-30T14:34:16;27.10;99.90
15115;DHT22;7658;51.456;7.622;2022-07-30T14:36:43;27.50;99.90
15115;DHT22;7658;51.456;7.622;2022-07-30T14:39:09;27.70;99.90
15115;DHT22;7658;51.456;7.622;2022-07-30T14:41:35;27.90;99.90
15115;DHT22;7658;51.456;7.622;2022-07-30T14:44:03;27.30;99.90
15115;DHT22;7658;51.456;7.622;2022-07-30T14:46:30;27.00;99.90
15115;DHT22;7658;51.456;7.622;2022-07-30T14:48:56;27.10;99.90
15115;DHT22;7658;51.456;7.622;2022-07-30T14:51:22;27.40;99.90
15115;DHT22;7658;51.456;7.622;2022-07-30T14:53:48;27.10;99.90
15115;DHT22;7658;51.456;7.622;2022-07-30T14:56:15;27.30;99.90
15115;DHT22;7658;51.456;7.622;2022-07-30T14:58:41;27.00;99.90
15115;DHT22;7658;51.456;7.622;2022-07-30T15:01:07;27.40;99.90
15115;DHT22;7658;51.456;7.622;2022-07-30T15:03:33;27.80;99.90
15115;DHT22;7658;51.456;7.622;2022-07-30T15:06:00;28.10;99.90
15115;DHT22;7658;51.456;7.622;2022-07-30T15:08:27;28.40;99.90
15115;DHT22;7658;51.456;7.622;2022-07-30T15:10:52;28.80;99.90
15115;DHT22;7658;51.456;7.622;2022-07-30T15:13:18;28.30;99.90
15115;DHT22;7658;51.456;7.622;2022-07-30T15:15:44;28.20;99.90
15115;DHT22;7658;51.456;7.622;2022-07-30T15:18:10;28.30;99.90
15115;DHT22;7658;51.456;7.622;2022-07-30T15:20:36;28.40;99.90
15115;DHT22;7658;51.456;7.622;2022-07-30T15:23:01;28.10;99.90
15115;DHT22;7658;51.456;7.622;2022-07-30T15:25:27;27.90;99.90
15115;DHT22;7658;51.456;7.622;2022-07-30T15:27:53;27.70;99.90
15115;DHT22;7658;51.456;7.622;2022-07-30T15:30:19;27.80;99.90
15115;DHT22;7658;51.456;7.622;2022-07-30T15:32:45;27.70;99.90
15115;DHT22;7658;51.456;7.622;2022-07-30T15:35:11;27.70;99.90
15115;DHT22;7658;51.456;7.622;2022-07-30T15:37:37;27.90;99.90
15115;DHT22;7658;51.456;7.622;2022-07-30T15:40:03;27.80;99.90
15115;DHT22;7658;51.456;7.622;2022-07-30T15:42:29;27.80;99.90
15115;DHT22;7658;51.456;7.622;2022-07-30T15:44:56;27.80;99.90
15115;DHT22;7658;51.456;7.622;2022-07-30T15:47:22;27.60;99.90
15115;DHT22;7658;51.456;7.622;2022-07-30T15:49:48;27.40;99.90
15115;DHT22;7658;51.456;7.622;2022-07-30T15:52:14;27.10;99.90
15115;DHT22;7658;51.456;7.622;2022-07-30T15:54:40;26.70;99.90
15115;DHT22;7658;51.456;7.622;2022-07-30T15:57:06;26.50;99.90
15115;DHT22;7658;51.456;7.622;2022-07-30T15:59:31;26.40;99.90
15115;DHT22;7658;51.456;7.622;2022-07-30T16:01:57;26.30;99.90
15115;DHT22;7658;51.456;7.622;2022-07-30T16:04:23;26.00;99.90
15115;DHT22;7658;51.456;7.622;2022-07-30T16:06:49;26.00;99.90
15115;DHT22;7658;51.456;7.622;2022-07-30T16:09:17;26.00;99.90
15115;DHT22;7658;51.456;7.622;2022-07-30T16:11:43;26.00;99.90
15115;DHT22;7658;51.456;7.622;2022-07-30T16:14:09;26.10;99.90
15115;DHT22;7658;51.456;7.622;2022-07-30T16:16:35;26.10;99.90
15115;DHT22;7658;51.456;7.622;2022-07-30T16:19:01;26.20;99.90
15115;DHT22;7658;51.456;7.622;2022-07-30T16:21:26;26.20;99.90
15115;DHT22;7658;51.456;7.622;2022-07-30T16:23:52;26.20;99.90
15115;DHT22;7658;51.456;7.622;2022-07-30T16:26:19;26.20;99.90
15115;DHT22;7658;51.456;7.622;2022-07-30T16:28:45;26.00;99.90
15115;DHT22;7658;51.456;7.622;2022-07-30T16:31:11;26.00;99.90
15115;DHT22;7658;51.456;7.622;2022-07-30T16:33:36;25.80;99.90